sensor_id;sensor_type;location;lat;lon;timestamp;temperature;humidity
71175;DHT22;58876;51.994;4.472;2023-05-20T00:01:58;14.41;66.58
71175;DHT22;58876;51.994;4.472;2023-05-20T00:04:23;14.43;66.23
71175;DHT22;58876;51.994;4.472;2023-05-20T00:06:49;14.40;66.34
71175;DHT22;58876;51.994;4.472;2023-05-20T00:09:15;14.38;66.12
71175;DHT22;58876;51.994;4.472;2023-05-20T00:11:41;14.22;66.41
71175;DHT22;58876;51.994;4.472;2023-05-20T00:14:07;14.22;66.24
71175;DHT22;58876;51.994;4.472;2023-05-20T00:16:33;14.22;66.29
71175;DHT22;58876;51.994;4.472;2023-05-20T00:18:58;14.27;66.08
71175;DHT22;58876;51.994;4.472;2023-05-20T00:21:24;14.26;65.95
71175;DHT22;58876;51.994;4.472;2023-05-20T00:23:50;14.27;65.52
71175;DHT22;58876;51.994;4.472;2023-05-20T00:26:15;14.26;65.41
71175;DHT22;58876;51.994;4.472;2023-05-20T00:28:41;14.17;65.91
71175;DHT22;58876;51.994;4.472;2023-05-20T00:31:06;14.16;65.83
71175;DHT22;58876;51.994;4.472;2023-05-20T00:33:32;14.09;65.96
71175;DHT22;58876;51.994;4.472;2023-05-20T00:35:57;14.15;65.35
71175;DHT22;58876;51.994;4.472;2023-05-20T00:38:23;14.05;65.44
71175;DHT22;58876;51.994;4.472;2023-05-20T00:40:48;14.09;65.36
71175;DHT22;58876;51.994;4.472;2023-05-20T00:43:13;14.12;65.52
71175;DHT22;58876;51.994;4.472;2023-05-20T00:45:39;14.09;65.87
71175;DHT22;58876;51.994;4.472;2023-05-20T00:48:05;14.10;65.44
71175;DHT22;58876;51.994;4.472;2023-05-20T00:50:31;14.08;65.33
71175;DHT22;58876;51.994;4.472;2023-05-20T00:52:57;14.06;65.64
71175;DHT22;58876;51.994;4.472;2023-05-20T00:55:23;13.99;65.93
71175;DHT22;58876;51.994;4.472;2023-05-20T00:57:51;13.96;66.07
71175;DHT22;58876;51.994;4.472;2023-05-20T01:00:17;13.95;66.21
71175;DHT22;58876;51.994;4.472;2023-05-20T01:02:42;13.94;65.97
71175;DHT22;58876;51.994;4.472;2023-05-20T01:05:08;13.90;66.45
71175;DHT22;58876;51.994;4.472;2023-05-20T01:07:34;13.89;66.41
71175;DHT22;58876;51.994;4.472;2023-05-20T01:10:00;13.92;66.09
71175;DHT22;58876;51.994;4.472;2023-05-20T01:12:30;13.94;66.35
71175;DHT22;58876;51.994;4.472;2023-05-20T01:15:00;13.90;66.29
71175;DHT22;58876;51.994;4.472;2023-05-20T01:17:29;13.88;66.28
71175;DHT22;58876;51.994;4.472;2023-05-20T01:19:58;13.75;67.04
71175;DHT22;58876;51.994;4.472;2023-05-20T01:22:28;13.79;66.97
71175;DHT22;58876;51.994;4.472;2023-05-20T01:24:54;13.79;66.85
71175;DHT22;58876;51.994;4.472;2023-05-20T01:27:21;13.76;66.86
71175;DHT22;58876;51.994;4.472;2023-05-20T01:29:48;13.78;66.89
71175;DHT22;58876;51.994;4.472;2023-05-20T01:32:20;13.76;67.24
71175;DHT22;58876;51.994;4.472;2023-05-20T01:34:49;13.74;67.56
71175;DHT22;58876;51.994;4.472;2023-05-20T01:37:16;13.68;67.59
71175;DHT22;58876;51.994;4.472;2023-05-20T01:39:44;13.67;67.78
71175;DHT22;58876;51.994;4.472;2023-05-20T01:42:12;13.68;67.69
71175;DHT22;58876;51.994;4.472;2023-05-20T01:44:39;13.69;67.87
71175;DHT22;58876;51.994;4.472;2023-05-20T01:47:05;13.69;67.58
71175;DHT22;58876;51.994;4.472;2023-05-20T01:49:31;13.68;68.13
71175;DHT22;58876;51.994;4.472;2023-05-20T01:51:57;13.57;68.41
71175;DHT22;58876;51.994;4.472;2023-05-20T01:54:23;13.61;68.28
71175;DHT22;58876;51.994;4.472;2023-05-20T01:56:49;13.61;68.08
71175;DHT22;58876;51.994;4.472;2023-05-20T01:59:14;13.61;68.36
71175;DHT22;58876;51.994;4.472;2023-05-20T02:01:40;13.55;68.20
71175;DHT22;58876;51.994;4.472;2023-05-20T02:04:05;13.57;68.65
71175;DHT22;58876;51.994;4.472;2023-05-20T02:06:31;13.57;68.54
71175;DHT22;58876;51.994;4.472;2023-05-20T02:08:56;13.59;68.30
71175;DHT22;58876;51.994;4.472;2023-05-20T02:11:22;13.58;68.44
71175;DHT22;58876;51.994;4.472;2023-05-20T02:13:48;13.55;68.67
71175;DHT22;58876;51.994;4.472;2023-05-20T02:16:14;13.53;68.54
71175;DHT22;58876;51.994;4.472;2023-05-20T02:18:39;13.53;68.71
71175;DHT22;58876;51.994;4.472;2023-05-20T02:21:07;13.46;68.91
71175;DHT22;58876;51.994;4.472;2023-05-20T02:23:32;13.47;68.50
71175;DHT22;58876;51.994;4.472;2023-05-20T02:25:58;13.44;68.69
71175;DHT22;58876;51.994;4.472;2023-05-20T02:28:23;13.41;69.29
71175;DHT22;58876;51.994;4.472;2023-05-20T02:30:49;13.41;68.93
71175;DHT22;58876;51.994;4.472;2023-05-20T02:33:16;13.41;68.82
71175;DHT22;58876;51.994;4.472;2023-05-20T02:35:41;13.40;68.89
71175;DHT22;58876;51.994;4.472;2023-05-20T02:38:07;13.40;68.96
71175;DHT22;58876;51.994;4.472;2023-05-20T02:40:32;13.46;69.20
71175;DHT22;58876;51.994;4.472;2023-05-20T02:42:59;13.44;68.90
71175;DHT22;58876;51.994;4.472;2023-05-20T02:45:24;13.44;68.62
71175;DHT22;58876;51.994;4.472;2023-05-20T02:47:50;13.47;68.83
71175;DHT22;58876;51.994;4.472;2023-05-20T02:50:15;13.46;68.89
71175;DHT22;58876;51.994;4.472;2023-05-20T02:52:41;13.48;69.18
71175;DHT22;58876;51.994;4.472;2023-05-20T02:55:07;13.46;68.96
71175;DHT22;58876;51.994;4.472;2023-05-20T02:57:33;13.55;68.49
71175;DHT22;58876;51.994;4.472;2023-05-20T03:00:03;13.55;68.69
71175;DHT22;58876;51.994;4.472;2023-05-20T03:02:30;13.58;68.58
71175;DHT22;58876;51.994;4.472;2023-05-20T03:04:55;13.58;68.65
71175;DHT22;58876;51.994;4.472;2023-05-20T03:07:21;13.58;68.31
71175;DHT22;58876;51.994;4.472;2023-05-20T03:09:46;13.64;68.19
71175;DHT22;58876;51.994;4.472;2023-05-20T03:12:12;13.61;68.46
71175;DHT22;58876;51.994;4.472;2023-05-20T03:14:37;13.61;68.38
71175;DHT22;58876;51.994;4.472;2023-05-20T03:17:03;13.55;68.41
71175;DHT22;58876;51.994;4.472;2023-05-20T03:19:28;13.57;68.18
71175;DHT22;58876;51.994;4.472;2023-05-20T03:21:54;13.61;68.32
71175;DHT22;58876;51.994;4.472;2023-05-20T03:24:19;13.55;68.63
71175;DHT22;58876;51.994;4.472;2023-05-20T03:26:48;13.54;68.85
71175;DHT22;58876;51.994;4.472;2023-05-20T03:29:13;13.48;68.55
71175;DHT22;58876;51.994;4.472;2023-05-20T03:31:39;13.48;69.18
71175;DHT22;58876;51.994;4.472;2023-05-20T03:34:05;13.50;68.60
71175;DHT22;58876;51.994;4.472;2023-05-20T03:36:30;13.47;68.70
71175;DHT22;58876;51.994;4.472;2023-05-20T03:38:56;13.41;69.07
71175;DHT22;58876;51.994;4.472;2023-05-20T03:41:21;13.47;69.01
71175;DHT22;58876;51.994;4.472;2023-05-20T03:43:47;13.43;68.89
71175;DHT22;58876;51.994;4.472;2023-05-20T03:46:12;13.38;68.98
71175;DHT22;58876;51.994;4.472;2023-05-20T03:48:38;13.40;69.32
71175;DHT22;58876;51.994;4.472;2023-05-20T03:51:03;13.36;69.50
71175;DHT22;58876;51.994;4.472;2023-05-20T03:53:29;13.37;69.83
71175;DHT22;58876;51.994;4.472;2023-05-20T03:55:54;13.33;69.85
71175;DHT22;58876;51.994;4.472;2023-05-20T03:58:19;13.23;69.96
71175;DHT22;58876;51.994;4.472;2023-05-20T04:00:46;13.28;69.79
71175;DHT22;58876;51.994;4.472;2023-05-20T04:03:12;13.33;69.70
71175;DHT22;58876;51.994;4.472;2023-05-20T04:05:37;13.43;69.70
71175;DHT22;58876;51.994;4.472;2023-05-20T04:08:03;13.40;69.69
71175;DHT22;58876;51.994;4.472;2023-05-20T04:10:29;13.43;69.72
71175;DHT22;58876;51.994;4.472;2023-05-20T04:12:56;13.30;69.83
71175;DHT22;58876;51.994;4.472;2023-05-20T04:15:22;13.34;69.91
71175;DHT22;58876;51.994;4.472;2023-05-20T04:17:48;13.38;70.01
71175;DHT22;58876;51.994;4.472;2023-05-20T04:20:14;13.40;69.77
71175;DHT22;58876;51.994;4.472;2023-05-20T04:22:40;13.41;70.24
71175;DHT22;58876;51.994;4.472;2023-05-20T04:25:06;13.55;69.73
71175;DHT22;58876;51.994;4.472;2023-05-20T04:27:32;13.59;69.79
71175;DHT22;58876;51.994;4.472;2023-05-20T04:30:02;13.64;69.10
71175;DHT22;58876;51.994;4.472;2023-05-20T04:32:29;13.65;69.44
71175;DHT22;58876;51.994;4.472;2023-05-20T04:34:54;13.65;69.62
71175;DHT22;58876;51.994;4.472;2023-05-20T04:37:24;13.64;69.52
71175;DHT22;58876;51.994;4.472;2023-05-20T04:39:49;13.61;70.16
71175;DHT22;58876;51.994;4.472;2023-05-20T04:42:15;13.68;70.21
71175;DHT22;58876;51.994;4.472;2023-05-20T04:44:44;13.72;70.15
71175;DHT22;58876;51.994;4.472;2023-05-20T04:47:16;13.85;70.15
71175;DHT22;58876;51.994;4.472;2023-05-20T04:49:41;13.94;69.59
71175;DHT22;58876;51.994;4.472;2023-05-20T04:52:07;13.92;70.42
71175;DHT22;58876;51.994;4.472;2023-05-20T04:54:32;13.94;70.50
71175;DHT22;58876;51.994;4.472;2023-05-20T04:56:58;13.95;70.07
71175;DHT22;58876;51.994;4.472;2023-05-20T04:59:24;14.02;69.91
71175;DHT22;58876;51.994;4.472;2023-05-20T05:01:49;14.02;69.99
71175;DHT22;58876;51.994;4.472;2023-05-20T05:04:15;14.01;70.37
71175;DHT22;58876;51.994;4.472;2023-05-20T05:06:40;13.89;71.43
71175;DHT22;58876;51.994;4.472;2023-05-20T05:09:06;13.94;71.37
71175;DHT22;58876;51.994;4.472;2023-05-20T05:11:32;13.96;71.44
71175;DHT22;58876;51.994;4.472;2023-05-20T05:13:58;14.02;70.99
71175;DHT22;58876;51.994;4.472;2023-05-20T05:16:24;14.12;70.40
71175;DHT22;58876;51.994;4.472;2023-05-20T05:18:49;14.26;70.12
71175;DHT22;58876;51.994;4.472;2023-05-20T05:21:14;14.47;70.19
71175;DHT22;58876;51.994;4.472;2023-05-20T05:23:40;14.51;69.68
71175;DHT22;58876;51.994;4.472;2023-05-20T05:26:07;14.61;70.04
71175;DHT22;58876;51.994;4.472;2023-05-20T05:28:32;14.71;69.59
71175;DHT22;58876;51.994;4.472;2023-05-20T05:30:57;14.74;69.73
71175;DHT22;58876;51.994;4.472;2023-05-20T05:33:23;14.73;69.51
71175;DHT22;58876;51.994;4.472;2023-05-20T05:35:49;14.73;69.63
71175;DHT22;58876;51.994;4.472;2023-05-20T05:38:15;14.83;69.15
71175;DHT22;58876;51.994;4.472;2023-05-20T05:40:41;14.91;69.01
71175;DHT22;58876;51.994;4.472;2023-05-20T05:43:06;14.91;68.71
71175;DHT22;58876;51.994;4.472;2023-05-20T05:45:32;14.98;68.72
71175;DHT22;58876;51.994;4.472;2023-05-20T05:47:57;15.15;68.20
71175;DHT22;58876;51.994;4.472;2023-05-20T05:50:23;15.18;68.29
71175;DHT22;58876;51.994;4.472;2023-05-20T05:52:48;15.22;68.02
71175;DHT22;58876;51.994;4.472;2023-05-20T05:55:14;15.18;68.19
71175;DHT22;58876;51.994;4.472;2023-05-20T05:57:39;15.18;67.94
71175;DHT22;58876;51.994;4.472;2023-05-20T06:00:05;15.22;67.62
71175;DHT22;58876;51.994;4.472;2023-05-20T06:02:32;15.29;67.44
71175;DHT22;58876;51.994;4.472;2023-05-20T06:05:04;15.31;67.39
71175;DHT22;58876;51.994;4.472;2023-05-20T06:07:29;15.35;67.10
71175;DHT22;58876;51.994;4.472;2023-05-20T06:09:55;15.49;66.39
71175;DHT22;58876;51.994;4.472;2023-05-20T06:12:21;15.52;66.68
71175;DHT22;58876;51.994;4.472;2023-05-20T06:14:46;15.64;66.52
71175;DHT22;58876;51.994;4.472;2023-05-20T06:17:12;15.77;66.41
71175;DHT22;58876;51.994;4.472;2023-05-20T06:19:37;15.79;65.08
71175;DHT22;58876;51.994;4.472;2023-05-20T06:22:03;15.82;65.03
71175;DHT22;58876;51.994;4.472;2023-05-20T06:24:28;15.82;64.91
71175;DHT22;58876;51.994;4.472;2023-05-20T06:26:54;16.00;65.04
71175;DHT22;58876;51.994;4.472;2023-05-20T06:29:19;16.11;64.40
71175;DHT22;58876;51.994;4.472;2023-05-20T06:31:45;16.10;64.05
71175;DHT22;58876;51.994;4.472;2023-05-20T06:34:10;16.18;63.43
71175;DHT22;58876;51.994;4.472;2023-05-20T06:36:36;16.26;63.54
71175;DHT22;58876;51.994;4.472;2023-05-20T06:39:01;16.21;62.85
71175;DHT22;58876;51.994;4.472;2023-05-20T06:41:27;16.35;63.47
71175;DHT22;58876;51.994;4.472;2023-05-20T06:43:52;16.41;62.71
71175;DHT22;58876;51.994;4.472;2023-05-20T06:46:17;16.53;62.82
71175;DHT22;58876;51.994;4.472;2023-05-20T06:48:43;16.69;62.96
71175;DHT22;58876;51.994;4.472;2023-05-20T06:51:08;16.76;62.57
71175;DHT22;58876;51.994;4.472;2023-05-20T06:53:34;16.84;62.13
71175;DHT22;58876;51.994;4.472;2023-05-20T06:56:00;16.99;62.06
71175;DHT22;58876;51.994;4.472;2023-05-20T06:58:26;16.96;62.08
71175;DHT22;58876;51.994;4.472;2023-05-20T07:00:51;16.94;62.06
71175;DHT22;58876;51.994;4.472;2023-05-20T07:03:16;16.99;62.08
71175;DHT22;58876;51.994;4.472;2023-05-20T07:05:42;17.10;61.72
71175;DHT22;58876;51.994;4.472;2023-05-20T07:08:07;17.28;60.76
71175;DHT22;58876;51.994;4.472;2023-05-20T07:10:33;17.54;60.84
71175;DHT22;58876;51.994;4.472;2023-05-20T07:12:58;17.71;60.28
71175;DHT22;58876;51.994;4.472;2023-05-20T07:15:24;17.88;59.83
71175;DHT22;58876;51.994;4.472;2023-05-20T07:17:49;18.10;59.81
71175;DHT22;58876;51.994;4.472;2023-05-20T07:20:15;18.14;59.14
71175;DHT22;58876;51.994;4.472;2023-05-20T07:22:41;18.29;57.37
71175;DHT22;58876;51.994;4.472;2023-05-20T07:25:08;18.37;57.25
71175;DHT22;58876;51.994;4.472;2023-05-20T07:27:34;18.40;56.27
71175;DHT22;58876;51.994;4.472;2023-05-20T07:29:59;18.39;56.25
71175;DHT22;58876;51.994;4.472;2023-05-20T07:32:25;18.46;56.76
71175;DHT22;58876;51.994;4.472;2023-05-20T07:34:50;18.61;57.29
71175;DHT22;58876;51.994;4.472;2023-05-20T07:37:16;18.92;55.88
71175;DHT22;58876;51.994;4.472;2023-05-20T07:39:41;19.18;55.13
71175;DHT22;58876;51.994;4.472;2023-05-20T07:42:07;19.18;54.69
71175;DHT22;58876;51.994;4.472;2023-05-20T07:44:32;19.08;55.23
71175;DHT22;58876;51.994;4.472;2023-05-20T07:46:58;19.45;54.13
71175;DHT22;58876;51.994;4.472;2023-05-20T07:49:23;19.59;54.20
71175;DHT22;58876;51.994;4.472;2023-05-20T07:51:49;19.77;54.58
71175;DHT22;58876;51.994;4.472;2023-05-20T07:54:15;20.01;53.57
71175;DHT22;58876;51.994;4.472;2023-05-20T07:56:40;20.28;53.20
71175;DHT22;58876;51.994;4.472;2023-05-20T07:59:06;20.49;52.10
71175;DHT22;58876;51.994;4.472;2023-05-20T08:01:31;20.99;51.44
71175;DHT22;58876;51.994;4.472;2023-05-20T08:03:57;21.23;48.77
71175;DHT22;58876;51.994;4.472;2023-05-20T08:06:22;21.31;48.77
71175;DHT22;58876;51.994;4.472;2023-05-20T08:08:51;21.73;48.41
71175;DHT22;58876;51.994;4.472;2023-05-20T08:11:18;22.42;47.07
71175;DHT22;58876;51.994;4.472;2023-05-20T08:13:43;22.90;44.36
71175;DHT22;58876;51.994;4.472;2023-05-20T08:16:09;23.74;44.18
71175;DHT22;58876;51.994;4.472;2023-05-20T08:18:34;23.94;41.80
71175;DHT22;58876;51.994;4.472;2023-05-20T08:21:06;23.67;42.12
71175;DHT22;58876;51.994;4.472;2023-05-20T08:23:32;23.74;43.57
71175;DHT22;58876;51.994;4.472;2023-05-20T08:25:58;24.21;42.01
71175;DHT22;58876;51.994;4.472;2023-05-20T08:28:27;24.27;42.37
71175;DHT22;58876;51.994;4.472;2023-05-20T08:30:52;24.40;42.91
71175;DHT22;58876;51.994;4.472;2023-05-20T08:33:18;24.34;41.82
71175;DHT22;58876;51.994;4.472;2023-05-20T08:35:44;24.42;41.12
71175;DHT22;58876;51.994;4.472;2023-05-20T08:38:10;24.34;41.31
71175;DHT22;58876;51.994;4.472;2023-05-20T08:40:36;24.37;41.69
71175;DHT22;58876;51.994;4.472;2023-05-20T08:43:01;24.65;39.82
71175;DHT22;58876;51.994;4.472;2023-05-20T08:45:31;24.44;41.31
71175;DHT22;58876;51.994;4.472;2023-05-20T08:47:57;24.18;42.51
71175;DHT22;58876;51.994;4.472;2023-05-20T08:50:22;24.93;41.69
71175;DHT22;58876;51.994;4.472;2023-05-20T08:52:48;25.37;40.58
71175;DHT22;58876;51.994;4.472;2023-05-20T08:55:17;25.78;38.71
71175;DHT22;58876;51.994;4.472;2023-05-20T08:57:50;25.97;38.65
71175;DHT22;58876;51.994;4.472;2023-05-20T09:00:16;25.02;37.93
71175;DHT22;58876;51.994;4.472;2023-05-20T09:02:44;24.72;40.72
71175;DHT22;58876;51.994;4.472;2023-05-20T09:05:11;24.88;39.97
71175;DHT22;58876;51.994;4.472;2023-05-20T09:07:36;24.83;39.84
71175;DHT22;58876;51.994;4.472;2023-05-20T09:10:03;24.73;40.49
71175;DHT22;58876;51.994;4.472;2023-05-20T09:12:29;24.92;39.22
71175;DHT22;58876;51.994;4.472;2023-05-20T09:14:54;25.08;40.06
71175;DHT22;58876;51.994;4.472;2023-05-20T09:17:23;25.24;39.46
71175;DHT22;58876;51.994;4.472;2023-05-20T09:19:49;25.64;38.42
71175;DHT22;58876;51.994;4.472;2023-05-20T09:22:28;25.22;37.75
71175;DHT22;58876;51.994;4.472;2023-05-20T09:24:54;24.83;38.26
71175;DHT22;58876;51.994;4.472;2023-05-20T09:27:20;24.49;40.94
71175;DHT22;58876;51.994;4.472;2023-05-20T09:29:47;24.37;39.32
71175;DHT22;58876;51.994;4.472;2023-05-20T09:32:13;24.21;40.08
71175;DHT22;58876;51.994;4.472;2023-05-20T09:34:39;23.53;42.28
71175;DHT22;58876;51.994;4.472;2023-05-20T09:37:10;23.77;40.98
71175;DHT22;58876;51.994;4.472;2023-05-20T09:39:56;23.83;39.95
71175;DHT22;58876;51.994;4.472;2023-05-20T09:42:27;23.69;40.20
71175;DHT22;58876;51.994;4.472;2023-05-20T09:44:54;23.41;41.54
71175;DHT22;58876;51.994;4.472;2023-05-20T09:47:25;23.26;43.42
71175;DHT22;58876;51.994;4.472;2023-05-20T09:49:51;23.26;41.72
71175;DHT22;58876;51.994;4.472;2023-05-20T09:52:18;23.01;40.73
71175;DHT22;58876;51.994;4.472;2023-05-20T09:54:44;22.81;42.13
71175;DHT22;58876;51.994;4.472;2023-05-20T09:57:11;22.65;42.64
71175;DHT22;58876;51.994;4.472;2023-05-20T09:59:39;22.36;43.27
71175;DHT22;58876;51.994;4.472;2023-05-20T10:02:05;21.77;42.60
71175;DHT22;58876;51.994;4.472;2023-05-20T10:04:34;22.30;43.75
71175;DHT22;58876;51.994;4.472;2023-05-20T10:13:03;21.95;42.49
71175;DHT22;58876;51.994;4.472;2023-05-20T10:18:38;22.26;41.96
71175;DHT22;58876;51.994;4.472;2023-05-20T10:21:14;22.91;41.32
71175;DHT22;58876;51.994;4.472;2023-05-20T10:23:41;23.05;41.98
71175;DHT22;58876;51.994;4.472;2023-05-20T10:26:07;22.50;42.23
71175;DHT22;58876;51.994;4.472;2023-05-20T10:28:34;22.39;41.34
71175;DHT22;58876;51.994;4.472;2023-05-20T10:31:01;22.53;39.99
71175;DHT22;58876;51.994;4.472;2023-05-20T10:33:28;23.05;39.47
71175;DHT22;58876;51.994;4.472;2023-05-20T10:35:58;23.16;41.06
71175;DHT22;58876;51.994;4.472;2023-05-20T10:38:24;23.39;41.87
71175;DHT22;58876;51.994;4.472;2023-05-20T10:40:51;23.41;39.16
71175;DHT22;58876;51.994;4.472;2023-05-20T10:43:26;23.77;38.25
71175;DHT22;58876;51.994;4.472;2023-05-20T10:45:56;23.28;38.81
71175;DHT22;58876;51.994;4.472;2023-05-20T10:48:28;22.80;41.22
71175;DHT22;58876;51.994;4.472;2023-05-20T10:50:58;23.11;40.94
71175;DHT22;58876;51.994;4.472;2023-05-20T10:53:26;22.98;41.35
71175;DHT22;58876;51.994;4.472;2023-05-20T10:55:53;22.74;42.35
71175;DHT22;58876;51.994;4.472;2023-05-20T10:58:23;22.70;42.05
71175;DHT22;58876;51.994;4.472;2023-05-20T11:00:54;22.87;42.03
71175;DHT22;58876;51.994;4.472;2023-05-20T11:03:21;22.84;43.09
71175;DHT22;58876;51.994;4.472;2023-05-20T11:05:47;22.39;43.09
71175;DHT22;58876;51.994;4.472;2023-05-20T11:08:13;22.19;42.84
71175;DHT22;58876;51.994;4.472;2023-05-20T11:10:40;21.96;43.19
71175;DHT22;58876;51.994;4.472;2023-05-20T11:13:06;21.96;42.68
71175;DHT22;58876;51.994;4.472;2023-05-20T11:15:34;21.95;44.03
71175;DHT22;58876;51.994;4.472;2023-05-20T11:18:02;21.98;43.59
71175;DHT22;58876;51.994;4.472;2023-05-20T11:20:29;22.29;42.97
71175;DHT22;58876;51.994;4.472;2023-05-20T11:22:55;22.68;43.20
71175;DHT22;58876;51.994;4.472;2023-05-20T11:25:22;23.08;40.39
71175;DHT22;58876;51.994;4.472;2023-05-20T11:27:49;23.11;41.52
71175;DHT22;58876;51.994;4.472;2023-05-20T11:30:15;23.29;40.60
71175;DHT22;58876;51.994;4.472;2023-05-20T11:32:59;23.66;39.13
71175;DHT22;58876;51.994;4.472;2023-05-20T11:35:27;23.62;39.92
71175;DHT22;58876;51.994;4.472;2023-05-20T11:38:03;23.79;40.44
71175;DHT22;58876;51.994;4.472;2023-05-20T11:40:31;24.20;39.99
71175;DHT22;58876;51.994;4.472;2023-05-20T11:42:59;23.93;40.39
71175;DHT22;58876;51.994;4.472;2023-05-20T11:45:25;24.20;40.08
71175;DHT22;58876;51.994;4.472;2023-05-20T11:48:03;24.18;37.61
71175;DHT22;58876;51.994;4.472;2023-05-20T11:50:35;24.27;38.18
71175;DHT22;58876;51.994;4.472;2023-05-20T11:53:04;24.68;38.16
71175;DHT22;58876;51.994;4.472;2023-05-20T11:55:31;24.58;37.81
71175;DHT22;58876;51.994;4.472;2023-05-20T11:58:00;24.61;38.24
71175;DHT22;58876;51.994;4.472;2023-05-20T12:00:27;24.52;38.73
71175;DHT22;58876;51.994;4.472;2023-05-20T12:02:52;24.48;39.44
71175;DHT22;58876;51.994;4.472;2023-05-20T12:05:18;24.59;38.61
71175;DHT22;58876;51.994;4.472;2023-05-20T12:07:44;24.85;37.48
71175;DHT22;58876;51.994;4.472;2023-05-20T12:10:10;24.78;38.36
71175;DHT22;58876;51.994;4.472;2023-05-20T12:12:36;24.62;39.51
71175;DHT22;58876;51.994;4.472;2023-05-20T12:15:04;24.72;37.83
71175;DHT22;58876;51.994;4.472;2023-05-20T12:17:50;24.58;39.05
71175;DHT22;58876;51.994;4.472;2023-05-20T12:20:20;24.80;38.50
71175;DHT22;58876;51.994;4.472;2023-05-20T12:22:46;25.16;38.71
71175;DHT22;58876;51.994;4.472;2023-05-20T12:25:12;24.86;38.52
71175;DHT22;58876;51.994;4.472;2023-05-20T12:27:40;24.86;35.55
71175;DHT22;58876;51.994;4.472;2023-05-20T12:30:07;24.68;38.05
71175;DHT22;58876;51.994;4.472;2023-05-20T12:32:35;25.00;38.36
71175;DHT22;58876;51.994;4.472;2023-05-20T12:35:00;24.93;38.10
71175;DHT22;58876;51.994;4.472;2023-05-20T12:37:26;24.35;39.25
71175;DHT22;58876;51.994;4.472;2023-05-20T12:39:51;24.38;38.71
71175;DHT22;58876;51.994;4.472;2023-05-20T12:42:17;24.78;37.99
71175;DHT22;58876;51.994;4.472;2023-05-20T12:44:43;25.13;38.00
71175;DHT22;58876;51.994;4.472;2023-05-20T12:47:08;25.54;36.30
71175;DHT22;58876;51.994;4.472;2023-05-20T12:49:34;25.36;35.92
71175;DHT22;58876;51.994;4.472;2023-05-20T12:51:59;25.47;36.91
71175;DHT22;58876;51.994;4.472;2023-05-20T12:54:24;25.26;36.37
71175;DHT22;58876;51.994;4.472;2023-05-20T12:56:53;25.56;38.21
71175;DHT22;58876;51.994;4.472;2023-05-20T12:59:18;25.53;38.11
71175;DHT22;58876;51.994;4.472;2023-05-20T13:01:44;25.22;38.15
71175;DHT22;58876;51.994;4.472;2023-05-20T13:04:09;25.34;38.80
71175;DHT22;58876;51.994;4.472;2023-05-20T13:06:35;25.61;37.41
71175;DHT22;58876;51.994;4.472;2023-05-20T13:09:00;25.50;37.67
71175;DHT22;58876;51.994;4.472;2023-05-20T13:11:26;25.03;38.25
71175;DHT22;58876;51.994;4.472;2023-05-20T13:13:54;24.86;37.08
71175;DHT22;58876;51.994;4.472;2023-05-20T13:16:19;24.14;40.12
71175;DHT22;58876;51.994;4.472;2023-05-20T13:18:44;24.85;37.89
71175;DHT22;58876;51.994;4.472;2023-05-20T13:21:10;25.29;37.85
71175;DHT22;58876;51.994;4.472;2023-05-20T13:23:36;25.44;35.69
71175;DHT22;58876;51.994;4.472;2023-05-20T13:26:01;24.93;36.96
71175;DHT22;58876;51.994;4.472;2023-05-20T13:28:27;24.89;38.35
71175;DHT22;58876;51.994;4.472;2023-05-20T13:30:53;25.08;36.85
71175;DHT22;58876;51.994;4.472;2023-05-20T13:33:18;25.20;37.62
71175;DHT22;58876;51.994;4.472;2023-05-20T13:35:44;24.99;37.29
71175;DHT22;58876;51.994;4.472;2023-05-20T13:38:09;24.76;36.45
71175;DHT22;58876;51.994;4.472;2023-05-20T13:40:35;24.58;38.71
71175;DHT22;58876;51.994;4.472;2023-05-20T13:43:00;24.88;38.26
71175;DHT22;58876;51.994;4.472;2023-05-20T13:45:26;25.17;37.17
71175;DHT22;58876;51.994;4.472;2023-05-20T13:47:51;24.85;37.74
71175;DHT22;58876;51.994;4.472;2023-05-20T13:50:18;24.69;38.46
71175;DHT22;58876;51.994;4.472;2023-05-20T13:52:43;24.75;38.58
71175;DHT22;58876;51.994;4.472;2023-05-20T13:55:09;24.48;38.36
71175;DHT22;58876;51.994;4.472;2023-05-20T13:57:34;24.06;39.04
71175;DHT22;58876;51.994;4.472;2023-05-20T13:59:59;24.42;38.89
71175;DHT22;58876;51.994;4.472;2023-05-20T14:02:25;24.44;38.54
71175;DHT22;58876;51.994;4.472;2023-05-20T14:04:50;24.42;39.08
71175;DHT22;58876;51.994;4.472;2023-05-20T14:07:16;25.02;38.41
71175;DHT22;58876;51.994;4.472;2023-05-20T14:09:41;25.47;36.99
71175;DHT22;58876;51.994;4.472;2023-05-20T14:12:07;25.40;37.83
71175;DHT22;58876;51.994;4.472;2023-05-20T14:14:32;25.03;37.50
71175;DHT22;58876;51.994;4.472;2023-05-20T14:16:57;24.82;37.83
71175;DHT22;58876;51.994;4.472;2023-05-20T14:19:25;24.85;37.08
71175;DHT22;58876;51.994;4.472;2023-05-20T14:21:51;25.38;37.18
71175;DHT22;58876;51.994;4.472;2023-05-20T14:24:16;25.61;36.33
71175;DHT22;58876;51.994;4.472;2023-05-20T14:26:41;25.61;36.83
71175;DHT22;58876;51.994;4.472;2023-05-20T14:29:07;25.88;36.56
71175;DHT22;58876;51.994;4.472;2023-05-20T14:31:32;25.92;36.27
71175;DHT22;58876;51.994;4.472;2023-05-20T14:33:58;25.67;35.49
71175;DHT22;58876;51.994;4.472;2023-05-20T14:36:23;25.30;36.53
71175;DHT22;58876;51.994;4.472;2023-05-20T14:38:49;24.85;36.55
71175;DHT22;58876;51.994;4.472;2023-05-20T14:41:14;25.26;36.74
71175;DHT22;58876;51.994;4.472;2023-05-20T14:43:40;25.85;37.34
71175;DHT22;58876;51.994;4.472;2023-05-20T14:46:05;26.25;36.70
71175;DHT22;58876;51.994;4.472;2023-05-20T14:48:30;25.95;36.21
71175;DHT22;58876;51.994;4.472;2023-05-20T14:50:56;24.86;37.24
71175;DHT22;58876;51.994;4.472;2023-05-20T14:53:21;24.82;37.40
71175;DHT22;58876;51.994;4.472;2023-05-20T14:55:47;24.93;38.02
71175;DHT22;58876;51.994;4.472;2023-05-20T14:58:12;25.00;38.11
71175;DHT22;58876;51.994;4.472;2023-05-20T15:00:38;24.71;39.61
71175;DHT22;58876;51.994;4.472;2023-05-20T15:03:03;24.48;39.51
71175;DHT22;58876;51.994;4.472;2023-05-20T15:05:29;24.14;39.10
71175;DHT22;58876;51.994;4.472;2023-05-20T15:07:55;23.94;40.17
71175;DHT22;58876;51.994;4.472;2023-05-20T15:10:21;24.42;39.04
71175;DHT22;58876;51.994;4.472;2023-05-20T15:12:46;24.68;38.06
71175;DHT22;58876;51.994;4.472;2023-05-20T15:15:11;24.78;38.32
71175;DHT22;58876;51.994;4.472;2023-05-20T15:17:37;25.33;37.50
71175;DHT22;58876;51.994;4.472;2023-05-20T15:20:03;25.77;36.59
71175;DHT22;58876;51.994;4.472;2023-05-20T15:22:29;25.63;36.50
71175;DHT22;58876;51.994;4.472;2023-05-20T15:24:54;25.61;36.95
71175;DHT22;58876;51.994;4.472;2023-05-20T15:27:20;25.40;38.27
71175;DHT22;58876;51.994;4.472;2023-05-20T15:29:45;25.36;37.48
71175;DHT22;58876;51.994;4.472;2023-05-20T15:32:13;25.00;38.30
71175;DHT22;58876;51.994;4.472;2023-05-20T15:34:38;25.37;38.29